sensor_id;sensor_type;location;lat;lon;timestamp;temperature;humidity
2897;DHT22;1458;49.728;9.228;2024-03-02T00:00:52;4.60;99.90
2897;DHT22;1458;49.728;9.228;2024-03-02T00:03:20;4.50;99.90
2897;DHT22;1458;49.728;9.228;2024-03-02T00:05:49;4.70;99.90
2897;DHT22;1458;49.728;9.228;2024-03-02T00:08:23;4.90;99.90
2897;DHT22;1458;49.728;9.228;2024-03-02T00:10:53;4.80;99.90
2897;DHT22;1458;49.728;9.228;2024-03-02T00:13:25;4.70;99.90
2897;DHT22;1458;49.728;9.228;2024-03-02T00:15:55;4.60;99.90
2897;DHT22;1458;49.728;9.228;2024-03-02T00:18:25;4.60;99.90
2897;DHT22;1458;49.728;9.228;2024-03-02T00:20:55;4.60;99.90
2897;DHT22;1458;49.728;9.228;2024-03-02T00:23:23;4.50;99.90
2897;DHT22;1458;49.728;9.228;2024-03-02T00:25:52;4.40;99.90
2897;DHT22;1458;49.728;9.228;2024-03-02T00:28:21;4.40;99.90
2897;DHT22;1458;49.728;9.228;2024-03-02T00:31:02;4.40;99.90
2897;DHT22;1458;49.728;9.228;2024-03-02T00:33:33;4.40;99.90
2897;DHT22;1458;49.728;9.228;2024-03-02T00:36:02;4.20;99.90
2897;DHT22;1458;49.728;9.228;2024-03-02T00:38:30;4.20;99.90
2897;DHT22;1458;49.728;9.228;2024-03-02T00:40:59;4.10;99.90
2897;DHT22;1458;49.728;9.228;2024-03-02T00:43:42;4.10;99.90
2897;DHT22;1458;49.728;9.228;2024-03-02T00:46:16;4.10;99.90
2897;DHT22;1458;49.728;9.228;2024-03-02T00:49:02;4.00;99.90
2897;DHT22;1458;49.728;9.228;2024-03-02T00:51:31;4.00;99.90
2897;DHT22;1458;49.728;9.228;2024-03-02T00:54:02;4.00;99.90
2897;DHT22;1458;49.728;9.228;2024-03-02T00:56:30;4.00;99.90
2897;DHT22;1458;49.728;9.228;2024-03-02T00:58:58;4.00;99.90
2897;DHT22;1458;49.728;9.228;2024-03-02T01:01:26;4.00;99.90
2897;DHT22;1458;49.728;9.228;2024-03-02T01:03:54;4.00;99.90
2897;DHT22;1458;49.728;9.228;2024-03-02T01:06:21;4.10;99.90
2897;DHT22;1458;49.728;9.228;2024-03-02T01:08:49;4.00;99.90
2897;DHT22;1458;49.728;9.228;2024-03-02T01:11:17;4.10;99.90
2897;DHT22;1458;49.728;9.228;2024-03-02T01:13:45;4.00;99.90
2897;DHT22;1458;49.728;9.228;2024-03-02T01:16:13;4.10;99.90
2897;DHT22;1458;49.728;9.228;2024-03-02T01:18:43;4.00;99.90
2897;DHT22;1458;49.728;9.228;2024-03-02T01:21:10;3.90;99.90
2897;DHT22;1458;49.728;9.228;2024-03-02T01:23:38;3.80;99.90
2897;DHT22;1458;49.728;9.228;2024-03-02T01:26:05;3.80;99.90
2897;DHT22;1458;49.728;9.228;2024-03-02T01:28:33;3.70;99.90
2897;DHT22;1458;49.728;9.228;2024-03-02T01:31:00;3.70;99.90
2897;DHT22;1458;49.728;9.228;2024-03-02T01:33:28;3.70;99.90
2897;DHT22;1458;49.728;9.228;2024-03-02T01:35:56;3.50;99.90
2897;DHT22;1458;49.728;9.228;2024-03-02T01:38:24;3.50;99.90
2897;DHT22;1458;49.728;9.228;2024-03-02T01:40:51;3.60;99.90
2897;DHT22;1458;49.728;9.228;2024-03-02T01:43:19;3.60;99.90
2897;DHT22;1458;49.728;9.228;2024-03-02T01:45:46;3.40;99.90
2897;DHT22;1458;49.728;9.228;2024-03-02T01:48:14;3.40;99.90
2897;DHT22;1458;49.728;9.228;2024-03-02T01:50:41;3.40;99.90
2897;DHT22;1458;49.728;9.228;2024-03-02T01:53:11;3.30;99.90
2897;DHT22;1458;49.728;9.228;2024-03-02T01:55:38;3.30;99.90
2897;DHT22;1458;49.728;9.228;2024-03-02T01:58:05;3.10;99.90
2897;DHT22;1458;49.728;9.228;2024-03-02T02:00:33;3.10;99.90
2897;DHT22;1458;49.728;9.228;2024-03-02T02:03:00;3.10;99.90
2897;DHT22;1458;49.728;9.228;2024-03-02T02:05:28;3.10;99.90
2897;DHT22;1458;49.728;9.228;2024-03-02T02:07:55;3.00;99.90
2897;DHT22;1458;49.728;9.228;2024-03-02T02:10:25;3.00;99.90
2897;DHT22;1458;49.728;9.228;2024-03-02T02:12:53;3.00;99.90
2897;DHT22;1458;49.728;9.228;2024-03-02T02:15:24;2.90;99.90
2897;DHT22;1458;49.728;9.228;2024-03-02T02:17:52;2.80;99.90
2897;DHT22;1458;49.728;9.228;2024-03-02T02:20:20;2.80;99.90
2897;DHT22;1458;49.728;9.228;2024-03-02T02:22:58;2.80;99.90
2897;DHT22;1458;49.728;9.228;2024-03-02T02:25:27;2.80;99.90
2897;DHT22;1458;49.728;9.228;2024-03-02T02:27:55;3.00;99.90
2897;DHT22;1458;49.728;9.228;2024-03-02T02:30:26;3.20;99.90
2897;DHT22;1458;49.728;9.228;2024-03-02T02:32:55;3.30;99.90
2897;DHT22;1458;49.728;9.228;2024-03-02T02:35:22;3.30;99.90
2897;DHT22;1458;49.728;9.228;2024-03-02T02:37:51;3.20;99.90
2897;DHT22;1458;49.728;9.228;2024-03-02T02:40:21;3.20;99.90
2897;DHT22;1458;49.728;9.228;2024-03-02T02:42:48;3.20;99.90
2897;DHT22;1458;49.728;9.228;2024-03-02T02:45:17;3.20;99.90
2897;DHT22;1458;49.728;9.228;2024-03-02T02:47:45;3.30;99.90
2897;DHT22;1458;49.728;9.228;2024-03-02T02:50:12;3.40;99.90
2897;DHT22;1458;49.728;9.228;2024-03-02T02:52:41;3.40;99.90
2897;DHT22;1458;49.728;9.228;2024-03-02T02:55:10;3.40;99.90
2897;DHT22;1458;49.728;9.228;2024-03-02T02:57:41;3.40;99.90
2897;DHT22;1458;49.728;9.228;2024-03-02T03:00:12;3.40;99.90
2897;DHT22;1458;49.728;9.228;2024-03-02T03:02:41;3.30;99.90
2897;DHT22;1458;49.728;9.228;2024-03-02T03:05:09;3.30;99.90
2897;DHT22;1458;49.728;9.228;2024-03-02T03:07:39;3.30;99.90
2897;DHT22;1458;49.728;9.228;2024-03-02T03:10:07;3.40;99.90
2897;DHT22;1458;49.728;9.228;2024-03-02T03:12:35;3.50;99.90
2897;DHT22;1458;49.728;9.228;2024-03-02T03:15:05;3.60;99.90
2897;DHT22;1458;49.728;9.228;2024-03-02T03:17:34;3.60;99.90
2897;DHT22;1458;49.728;9.228;2024-03-02T03:20:03;3.70;99.90
2897;DHT22;1458;49.728;9.228;2024-03-02T03:22:35;3.60;99.90
2897;DHT22;1458;49.728;9.228;2024-03-02T03:25:03;3.60;99.90
2897;DHT22;1458;49.728;9.228;2024-03-02T03:27:30;3.60;99.90
2897;DHT22;1458;49.728;9.228;2024-03-02T03:29:58;3.70;99.90
2897;DHT22;1458;49.728;9.228;2024-03-02T03:32:27;3.60;99.90
2897;DHT22;1458;49.728;9.228;2024-03-02T03:34:54;3.60;99.90
2897;DHT22;1458;49.728;9.228;2024-03-02T03:37:21;3.70;99.90
2897;DHT22;1458;49.728;9.228;2024-03-02T03:39:49;3.80;99.90
2897;DHT22;1458;49.728;9.228;2024-03-02T03:42:17;3.90;99.90
2897;DHT22;1458;49.728;9.228;2024-03-02T03:44:44;3.90;99.90
2897;DHT22;1458;49.728;9.228;2024-03-02T03:47:11;3.70;99.90
2897;DHT22;1458;49.728;9.228;2024-03-02T03:49:40;3.50;99.90
2897;DHT22;1458;49.728;9.228;2024-03-02T03:52:07;3.70;99.90
2897;DHT22;1458;49.728;9.228;2024-03-02T03:54:35;3.70;99.90
2897;DHT22;1458;49.728;9.228;2024-03-02T03:57:04;3.70;99.90
2897;DHT22;1458;49.728;9.228;2024-03-02T03:59:32;3.50;99.90
2897;DHT22;1458;49.728;9.228;2024-03-02T04:02:00;3.40;99.90
2897;DHT22;1458;49.728;9.228;2024-03-02T04:04:28;3.40;99.90
2897;DHT22;1458;49.728;9.228;2024-03-02T04:06:57;3.40;99.90
2897;DHT22;1458;49.728;9.228;2024-03-02T04:09:24;3.30;99.90
2897;DHT22;1458;49.728;9.228;2024-03-02T04:11:52;3.30;99.90
2897;DHT22;1458;49.728;9.228;2024-03-02T04:14:20;3.30;99.90
2897;DHT22;1458;49.728;9.228;2024-03-02T04:16:47;3.20;99.90
2897;DHT22;1458;49.728;9.228;2024-03-02T04:19:14;3.10;99.90
2897;DHT22;1458;49.728;9.228;2024-03-02T04:21:42;2.90;99.90
2897;DHT22;1458;49.728;9.228;2024-03-02T04:24:10;2.90;99.90
2897;DHT22;1458;49.728;9.228;2024-03-02T04:26:38;3.00;99.90
2897;DHT22;1458;49.728;9.228;2024-03-02T04:29:05;3.00;99.90
2897;DHT22;1458;49.728;9.228;2024-03-02T04:31:33;3.10;99.90
2897;DHT22;1458;49.728;9.228;2024-03-02T04:34:00;3.10;99.90
2897;DHT22;1458;49.728;9.228;2024-03-02T04:36:28;3.00;99.90
2897;DHT22;1458;49.728;9.228;2024-03-02T04:38:55;2.90;99.90
2897;DHT22;1458;49.728;9.228;2024-03-02T04:41:24;2.80;99.90
2897;DHT22;1458;49.728;9.228;2024-03-02T04:43:51;2.80;99.90
2897;DHT22;1458;49.728;9.228;2024-03-02T04:46:19;2.80;99.90
2897;DHT22;1458;49.728;9.228;2024-03-02T04:48:46;2.90;99.90
2897;DHT22;1458;49.728;9.228;2024-03-02T04:51:14;2.90;99.90
2897;DHT22;1458;49.728;9.228;2024-03-02T04:53:41;2.80;99.90
2897;DHT22;1458;49.728;9.228;2024-03-02T04:56:09;2.80;99.90
2897;DHT22;1458;49.728;9.228;2024-03-02T04:59:03;2.80;99.90
2897;DHT22;1458;49.728;9.228;2024-03-02T05:01:31;2.80;99.90
2897;DHT22;1458;49.728;9.228;2024-03-02T05:03:58;2.80;99.90
2897;DHT22;1458;49.728;9.228;2024-03-02T05:06:25;2.80;99.90
2897;DHT22;1458;49.728;9.228;2024-03-02T05:08:53;2.80;99.90
2897;DHT22;1458;49.728;9.228;2024-03-02T05:11:20;2.70;99.90
2897;DHT22;1458;49.728;9.228;2024-03-02T05:14:20;2.70;99.90
2897;DHT22;1458;49.728;9.228;2024-03-02T05:16:46;2.80;99.90
2897;DHT22;1458;49.728;9.228;2024-03-02T05:19:14;2.70;99.90
2897;DHT22;1458;49.728;9.228;2024-03-02T05:21:41;2.70;99.90
2897;DHT22;1458;49.728;9.228;2024-03-02T05:24:09;2.80;99.90
2897;DHT22;1458;49.728;9.228;2024-03-02T05:26:36;2.90;99.90
2897;DHT22;1458;49.728;9.228;2024-03-02T05:29:04;3.00;99.90
2897;DHT22;1458;49.728;9.228;2024-03-02T05:31:33;3.00;99.90
2897;DHT22;1458;49.728;9.228;2024-03-02T05:34:01;3.10;99.90
2897;DHT22;1458;49.728;9.228;2024-03-02T05:36:28;3.10;99.90
2897;DHT22;1458;49.728;9.228;2024-03-02T05:38:55;3.10;99.90
2897;DHT22;1458;49.728;9.228;2024-03-02T05:41:23;3.40;99.90
2897;DHT22;1458;49.728;9.228;2024-03-02T05:43:50;3.30;99.90
2897;DHT22;1458;49.728;9.228;2024-03-02T05:46:18;3.30;99.90
2897;DHT22;1458;49.728;9.228;2024-03-02T05:48:46;3.30;99.90
2897;DHT22;1458;49.728;9.228;2024-03-02T05:51:14;3.40;99.90
2897;DHT22;1458;49.728;9.228;2024-03-02T05:53:41;3.50;99.90
2897;DHT22;1458;49.728;9.228;2024-03-02T05:56:09;3.70;99.90
2897;DHT22;1458;49.728;9.228;2024-03-02T05:58:37;3.70;99.90
2897;DHT22;1458;49.728;9.228;2024-03-02T06:01:19;3.70;99.90
2897;DHT22;1458;49.728;9.228;2024-03-02T06:03:49;3.60;99.90
2897;DHT22;1458;49.728;9.228;2024-03-02T06:06:17;3.70;99.90
2897;DHT22;1458;49.728;9.228;2024-03-02T06:08:44;3.80;99.90
2897;DHT22;1458;49.728;9.228;2024-03-02T06:11:11;3.80;99.90
2897;DHT22;1458;49.728;9.228;2024-03-02T06:13:39;3.90;99.90
2897;DHT22;1458;49.728;9.228;2024-03-02T06:16:06;3.90;99.90
2897;DHT22;1458;49.728;9.228;2024-03-02T06:18:35;4.00;99.90
2897;DHT22;1458;49.728;9.228;2024-03-02T06:21:04;3.90;99.90
2897;DHT22;1458;49.728;9.228;2024-03-02T06:23:31;4.00;99.90
2897;DHT22;1458;49.728;9.228;2024-03-02T06:25:59;4.00;99.90
2897;DHT22;1458;49.728;9.228;2024-03-02T06:28:26;4.00;99.90
2897;DHT22;1458;49.728;9.228;2024-03-02T06:30:53;4.10;99.90
2897;DHT22;1458;49.728;9.228;2024-03-02T06:33:21;4.10;99.90
2897;DHT22;1458;49.728;9.228;2024-03-02T06:35:48;4.00;99.90
2897;DHT22;1458;49.728;9.228;2024-03-02T06:38:17;4.00;99.90
2897;DHT22;1458;49.728;9.228;2024-03-02T06:40:45;4.00;99.90
2897;DHT22;1458;49.728;9.228;2024-03-02T06:43:12;4.10;99.90
2897;DHT22;1458;49.728;9.228;2024-03-02T06:45:39;4.20;99.90
2897;DHT22;1458;49.728;9.228;2024-03-02T06:48:07;4.30;99.90
2897;DHT22;1458;49.728;9.228;2024-03-02T06:50:35;4.30;99.90
2897;DHT22;1458;49.728;9.228;2024-03-02T06:53:02;4.40;99.90
2897;DHT22;1458;49.728;9.228;2024-03-02T06:55:31;4.40;99.90
2897;DHT22;1458;49.728;9.228;2024-03-02T06:57:59;4.50;99.90
2897;DHT22;1458;49.728;9.228;2024-03-02T07:00:26;4.70;99.90
2897;DHT22;1458;49.728;9.228;2024-03-02T07:02:54;4.60;99.90
2897;DHT22;1458;49.728;9.228;2024-03-02T07:05:22;4.50;99.90
2897;DHT22;1458;49.728;9.228;2024-03-02T07:07:49;4.70;99.90
2897;DHT22;1458;49.728;9.228;2024-03-02T07:10:17;4.80;99.90
2897;DHT22;1458;49.728;9.228;2024-03-02T07:12:46;4.90;99.90
2897;DHT22;1458;49.728;9.228;2024-03-02T07:15:13;4.90;99.90
2897;DHT22;1458;49.728;9.228;2024-03-02T07:18:10;4.90;99.90
2897;DHT22;1458;49.728;9.228;2024-03-02T07:20:37;5.00;99.90
2897;DHT22;1458;49.728;9.228;2024-03-02T07:23:05;5.00;99.90
2897;DHT22;1458;49.728;9.228;2024-03-02T07:25:32;5.10;99.90
2897;DHT22;1458;49.728;9.228;2024-03-02T07:28:01;5.20;99.90
2897;DHT22;1458;49.728;9.228;2024-03-02T07:30:30;5.40;99.90
2897;DHT22;1458;49.728;9.228;2024-03-02T07:32:57;5.50;99.90
2897;DHT22;1458;49.728;9.228;2024-03-02T07:35:25;5.60;99.90
2897;DHT22;1458;49.728;9.228;2024-03-02T07:37:53;5.60;99.90
2897;DHT22;1458;49.728;9.228;2024-03-02T07:40:21;5.60;99.90
2897;DHT22;1458;49.728;9.228;2024-03-02T07:42:48;5.70;99.90
2897;DHT22;1458;49.728;9.228;2024-03-02T07:45:17;5.90;99.90
2897;DHT22;1458;49.728;9.228;2024-03-02T07:47:45;6.00;99.90
2897;DHT22;1458;49.728;9.228;2024-03-02T07:50:13;6.10;99.90
2897;DHT22;1458;49.728;9.228;2024-03-02T07:52:40;6.20;99.90
2897;DHT22;1458;49.728;9.228;2024-03-02T07:55:08;6.20;99.90
2897;DHT22;1458;49.728;9.228;2024-03-02T07:57:35;6.30;99.90
2897;DHT22;1458;49.728;9.228;2024-03-02T08:00:03;6.50;99.90
2897;DHT22;1458;49.728;9.228;2024-03-02T08:02:40;6.40;99.90
2897;DHT22;1458;49.728;9.228;2024-03-02T08:05:08;6.40;99.90
2897;DHT22;1458;49.728;9.228;2024-03-02T08:07:36;6.60;99.90
2897;DHT22;1458;49.728;9.228;2024-03-02T08:10:04;6.70;99.90
2897;DHT22;1458;49.728;9.228;2024-03-02T08:12:32;6.80;99.90
2897;DHT22;1458;49.728;9.228;2024-03-02T08:15:00;7.00;99.90
2897;DHT22;1458;49.728;9.228;2024-03-02T08:17:27;6.90;99.90
2897;DHT22;1458;49.728;9.228;2024-03-02T08:19:56;6.80;99.90
2897;DHT22;1458;49.728;9.228;2024-03-02T08:22:24;6.80;99.90
2897;DHT22;1458;49.728;9.228;2024-03-02T08:24:52;6.90;99.90
2897;DHT22;1458;49.728;9.228;2024-03-02T08:27:20;6.80;99.90
2897;DHT22;1458;49.728;9.228;2024-03-02T08:29:47;6.80;99.90
2897;DHT22;1458;49.728;9.228;2024-03-02T08:32:15;7.00;99.90
2897;DHT22;1458;49.728;9.228;2024-03-02T08:34:43;6.90;99.90
2897;DHT22;1458;49.728;9.228;2024-03-02T08:37:12;7.00;99.90
2897;DHT22;1458;49.728;9.228;2024-03-02T08:39:39;7.10;99.90
2897;DHT22;1458;49.728;9.228;2024-03-02T08:42:07;7.10;99.90
2897;DHT22;1458;49.728;9.228;2024-03-02T08:44:34;7.00;99.90
2897;DHT22;1458;49.728;9.228;2024-03-02T08:47:02;7.00;99.90
2897;DHT22;1458;49.728;9.228;2024-03-02T08:49:30;7.10;99.90
2897;DHT22;1458;49.728;9.228;2024-03-02T08:51:57;7.20;99.90
2897;DHT22;1458;49.728;9.228;2024-03-02T08:54:26;7.10;99.90
2897;DHT22;1458;49.728;9.228;2024-03-02T08:56:53;7.20;99.90
2897;DHT22;1458;49.728;9.228;2024-03-02T08:59:21;7.30;99.90
2897;DHT22;1458;49.728;9.228;2024-03-02T09:01:48;7.20;99.90
2897;DHT22;1458;49.728;9.228;2024-03-02T09:04:16;7.00;99.90
2897;DHT22;1458;49.728;9.228;2024-03-02T09:06:43;7.00;99.90
2897;DHT22;1458;49.728;9.228;2024-03-02T09:09:11;7.00;99.90
2897;DHT22;1458;49.728;9.228;2024-03-02T09:11:39;7.10;99.90
2897;DHT22;1458;49.728;9.228;2024-03-02T09:14:07;7.10;99.90
2897;DHT22;1458;49.728;9.228;2024-03-02T09:16:35;7.20;99.90
2897;DHT22;1458;49.728;9.228;2024-03-02T09:19:03;7.20;99.90
2897;DHT22;1458;49.728;9.228;2024-03-02T09:21:31;7.50;99.90
2897;DHT22;1458;49.728;9.228;2024-03-02T09:23:58;7.50;99.90
2897;DHT22;1458;49.728;9.228;2024-03-02T09:26:25;7.50;99.90
2897;DHT22;1458;49.728;9.228;2024-03-02T09:28:54;7.50;99.90
2897;DHT22;1458;49.728;9.228;2024-03-02T09:31:22;7.50;99.90
2897;DHT22;1458;49.728;9.228;2024-03-02T09:33:49;7.50;99.90
2897;DHT22;1458;49.728;9.228;2024-03-02T09:36:17;7.70;99.90
2897;DHT22;1458;49.728;9.228;2024-03-02T09:38:45;7.70;99.90
2897;DHT22;1458;49.728;9.228;2024-03-02T09:41:13;7.80;99.90
2897;DHT22;1458;49.728;9.228;2024-03-02T09:43:41;8.10;99.90
2897;DHT22;1458;49.728;9.228;2024-03-02T09:46:10;8.20;99.90
2897;DHT22;1458;49.728;9.228;2024-03-02T09:48:37;8.20;99.90
2897;DHT22;1458;49.728;9.228;2024-03-02T09:51:05;8.30;99.90
2897;DHT22;1458;49.728;9.228;2024-03-02T09:53:34;8.50;99.90
2897;DHT22;1458;49.728;9.228;2024-03-02T09:56:01;8.80;99.90
2897;DHT22;1458;49.728;9.228;2024-03-02T09:58:29;9.00;99.90
2897;DHT22;1458;49.728;9.228;2024-03-02T10:00:56;9.20;99.90
2897;DHT22;1458;49.728;9.228;2024-03-02T10:03:25;9.30;99.00
2897;DHT22;1458;49.728;9.228;2024-03-02T10:05:53;9.50;97.70
2897;DHT22;1458;49.728;9.228;2024-03-02T10:08:21;9.50;95.30
2897;DHT22;1458;49.728;9.228;2024-03-02T10:10:48;9.80;95.80
2897;DHT22;1458;49.728;9.228;2024-03-02T10:13:16;9.90;94.50
2897;DHT22;1458;49.728;9.228;2024-03-02T10:15:43;10.20;92.20
2897;DHT22;1458;49.728;9.228;2024-03-02T10:18:12;10.30;91.60
2897;DHT22;1458;49.728;9.228;2024-03-02T10:20:43;10.40;90.90
2897;DHT22;1458;49.728;9.228;2024-03-02T10:23:12;10.40;90.20
2897;DHT22;1458;49.728;9.228;2024-03-02T10:25:40;10.50;90.10
2897;DHT22;1458;49.728;9.228;2024-03-02T10:28:09;10.60;89.20
2897;DHT22;1458;49.728;9.228;2024-03-02T10:30:37;10.70;87.00
2897;DHT22;1458;49.728;9.228;2024-03-02T10:33:06;10.80;85.40
2897;DHT22;1458;49.728;9.228;2024-03-02T10:35:33;11.00;85.90
2897;DHT22;1458;49.728;9.228;2024-03-02T10:38:05;11.00;82.30
2897;DHT22;1458;49.728;9.228;2024-03-02T10:40:33;11.10;84.80
2897;DHT22;1458;49.728;9.228;2024-03-02T10:43:01;11.10;80.40
2897;DHT22;1458;49.728;9.228;2024-03-02T10:45:31;11.10;77.50
2897;DHT22;1458;49.728;9.228;2024-03-02T10:48:00;11.20;78.10
2897;DHT22;1458;49.728;9.228;2024-03-02T10:50:31;11.20;77.00
2897;DHT22;1458;49.728;9.228;2024-03-02T10:52:59;11.50;77.70
2897;DHT22;1458;49.728;9.228;2024-03-02T10:55:27;11.60;75.00
2897;DHT22;1458;49.728;9.228;2024-03-02T10:57:55;11.50;73.90
2897;DHT22;1458;49.728;9.228;2024-03-02T11:00:25;11.50;75.50
2897;DHT22;1458;49.728;9.228;2024-03-02T11:02:56;11.60;73.90
2897;DHT22;1458;49.728;9.228;2024-03-02T11:05:27;11.70;70.20
2897;DHT22;1458;49.728;9.228;2024-03-02T11:08:00;11.60;70.90
2897;DHT22;1458;49.728;9.228;2024-03-02T11:10:35;11.70;70.00
2897;DHT22;1458;49.728;9.228;2024-03-02T11:13:07;11.70;69.60
2897;DHT22;1458;49.728;9.228;2024-03-02T11:15:36;11.80;70.00
2897;DHT22;1458;49.728;9.228;2024-03-02T11:18:05;11.80;69.30
2897;DHT22;1458;49.728;9.228;2024-03-02T11:20:36;11.90;69.50
2897;DHT22;1458;49.728;9.228;2024-03-02T11:23:07;12.00;67.30
2897;DHT22;1458;49.728;9.228;2024-03-02T11:25:37;12.10;66.30
2897;DHT22;1458;49.728;9.228;2024-03-02T11:28:06;12.00;66.50
2897;DHT22;1458;49.728;9.228;2024-03-02T11:33:25;12.20;66.20
2897;DHT22;1458;49.728;9.228;2024-03-02T11:35:56;12.20;65.70
2897;DHT22;1458;49.728;9.228;2024-03-02T11:38:29;12.40;63.60
2897;DHT22;1458;49.728;9.228;2024-03-02T11:40:59;12.30;63.80
2897;DHT22;1458;49.728;9.228;2024-03-02T11:43:28;12.60;63.10
2897;DHT22;1458;49.728;9.228;2024-03-02T11:46:00;12.60;61.50
2897;DHT22;1458;49.728;9.228;2024-03-02T11:48:30;12.60;62.40
2897;DHT22;1458;49.728;9.228;2024-03-02T11:50:59;12.40;62.30
2897;DHT22;1458;49.728;9.228;2024-03-02T11:53:28;12.60;62.40
2897;DHT22;1458;49.728;9.228;2024-03-02T11:55:57;12.50;62.50
2897;DHT22;1458;49.728;9.228;2024-03-02T11:58:27;12.60;62.10
2897;DHT22;1458;49.728;9.228;2024-03-02T12:00:55;12.80;59.50
2897;DHT22;1458;49.728;9.228;2024-03-02T12:03:25;13.00;57.30
2897;DHT22;1458;49.728;9.228;2024-03-02T12:05:54;13.00;57.50
2897;DHT22;1458;49.728;9.228;2024-03-02T12:08:22;12.90;57.60
2897;DHT22;1458;49.728;9.228;2024-03-02T12:10:58;12.80;56.70
2897;DHT22;1458;49.728;9.228;2024-03-02T12:13:26;13.00;60.00
2897;DHT22;1458;49.728;9.228;2024-03-02T12:15:54;13.10;57.20
2897;DHT22;1458;49.728;9.228;2024-03-02T12:18:22;13.00;54.50
2897;DHT22;1458;49.728;9.228;2024-03-02T12:20:50;12.90;54.00
2897;DHT22;1458;49.728;9.228;2024-03-02T12:23:22;13.00;54.60
2897;DHT22;1458;49.728;9.228;2024-03-02T12:25:49;12.90;55.30
2897;DHT22;1458;49.728;9.228;2024-03-02T12:28:19;13.00;54.90
2897;DHT22;1458;49.728;9.228;2024-03-02T12:30:47;13.10;55.80
2897;DHT22;1458;49.728;9.228;2024-03-02T12:33:14;13.20;53.40
2897;DHT22;1458;49.728;9.228;2024-03-02T12:35:42;13.20;55.80
2897;DHT22;1458;49.728;9.228;2024-03-02T12:38:09;13.30;54.10
2897;DHT22;1458;49.728;9.228;2024-03-02T12:40:37;13.40;51.30
2897;DHT22;1458;49.728;9.228;2024-03-02T12:43:05;13.40;52.80
2897;DHT22;1458;49.728;9.228;2024-03-02T12:45:35;13.50;49.50
2897;DHT22;1458;49.728;9.228;2024-03-02T12:48:05;13.40;49.50
2897;DHT22;1458;49.728;9.228;2024-03-02T12:50:33;13.50;51.10
2897;DHT22;1458;49.728;9.228;2024-03-02T12:53:00;13.60;51.10
2897;DHT22;1458;49.728;9.228;2024-03-02T12:55:28;13.70;51.60
2897;DHT22;1458;49.728;9.228;2024-03-02T12:57:56;13.50;47.00
2897;DHT22;1458;49.728;9.228;2024-03-02T13:00:24;13.60;46.30
2897;DHT22;1458;49.728;9.228;2024-03-02T13:02:53;13.70;46.40
2897;DHT22;1458;49.728;9.228;2024-03-02T13:05:30;13.70;41.30
2897;DHT22;1458;49.728;9.228;2024-03-02T13:07:58;13.70;46.20
2897;DHT22;1458;49.728;9.228;2024-03-02T13:10:26;13.70;44.60
2897;DHT22;1458;49.728;9.228;2024-03-02T13:12:55;13.90;45.00
2897;DHT22;1458;49.728;9.228;2024-03-02T13:15:23;13.90;45.80
2897;DHT22;1458;49.728;9.228;2024-03-02T13:17:50;13.90;45.80
2897;DHT22;1458;49.728;9.228;2024-03-02T13:20:19;14.10;43.00
2897;DHT22;1458;49.728;9.228;2024-03-02T13:22:47;14.00;42.60
2897;DHT22;1458;49.728;9.228;2024-03-02T13:25:14;14.00;46.30
2897;DHT22;1458;49.728;9.228;2024-03-02T13:27:42;14.00;46.30
2897;DHT22;1458;49.728;9.228;2024-03-02T13:30:10;14.20;45.80
2897;DHT22;1458;49.728;9.228;2024-03-02T13:32:38;14.00;46.40
2897;DHT22;1458;49.728;9.228;2024-03-02T13:35:05;14.00;46.70
2897;DHT22;1458;49.728;9.228;2024-03-02T13:37:35;14.00;46.30
2897;DHT22;1458;49.728;9.228;2024-03-02T13:40:03;14.00;46.00
2897;DHT22;1458;49.728;9.228;2024-03-02T13:42:31;14.10;44.80
2897;DHT22;1458;49.728;9.228;2024-03-02T13:44:59;14.20;45.30
2897;DHT22;1458;49.728;9.228;2024-03-02T13:47:26;14.20;45.90
2897;DHT22;1458;49.728;9.228;2024-03-02T13:49:54;14.30;45.00
2897;DHT22;1458;49.728;9.228;2024-03-02T13:52:21;14.30;43.20
2897;DHT22;1458;49.728;9.228;2024-03-02T13:54:52;14.40;44.10
2897;DHT22;1458;49.728;9.228;2024-03-02T13:57:20;14.30;42.60
2897;DHT22;1458;49.728;9.228;2024-03-02T13:59:47;14.30;42.90
2897;DHT22;1458;49.728;9.228;2024-03-02T14:02:16;14.40;41.10
2897;DHT22;1458;49.728;9.228;2024-03-02T14:04:43;14.50;43.20
2897;DHT22;1458;49.728;9.228;2024-03-02T14:07:11;14.50;42.30
2897;DHT22;1458;49.728;9.228;2024-03-02T14:09:39;14.40;43.00
2897;DHT22;1458;49.728;9.228;2024-03-02T14:12:10;14.50;41.00
2897;DHT22;1458;49.728;9.228;2024-03-02T14:14:39;14.60;40.90
2897;DHT22;1458;49.728;9.228;2024-03-02T14:17:07;14.60;40.30
2897;DHT22;1458;49.728;9.228;2024-03-02T14:19:40;14.80;38.90
2897;DHT22;1458;49.728;9.228;2024-03-02T14:22:07;14.60;38.70
2897;DHT22;1458;49.728;9.228;2024-03-02T14:24:34;14.50;38.60
2897;DHT22;1458;49.728;9.228;2024-03-02T14:27:02;14.70;38.80
2897;DHT22;1458;49.728;9.228;2024-03-02T14:29:31;14.70;37.80
2897;DHT22;1458;49.728;9.228;2024-03-02T14:32:02;14.60;38.50
2897;DHT22;1458;49.728;9.228;2024-03-02T14:34:29;14.50;38.60
2897;DHT22;1458;49.728;9.228;2024-03-02T14:36:57;14.80;37.20
2897;DHT22;1458;49.728;9.228;2024-03-02T14:39:25;14.70;35.80
2897;DHT22;1458;49.728;9.228;2024-03-02T14:41:53;14.60;38.60
2897;DHT22;1458;49.728;9.228;2024-03-02T14:44:21;14.50;38.60
2897;DHT22;1458;49.728;9.228;2024-03-02T14:46:50;14.40;38.40
2897;DHT22;1458;49.728;9.228;2024-03-02T14:49:17;14.50;36.40
2897;DHT22;1458;49.728;9.228;2024-03-02T14:51:45;14.60;35.40
2897;DHT22;1458;49.728;9.228;2024-03-02T14:54:15;14.80;35.70
2897;DHT22;1458;49.728;9.228;2024-03-02T14:56:43;14.60;33.50
2897;DHT22;1458;49.728;9.228;2024-03-02T14:59:10;14.60;33.30
2897;DHT22;1458;49.728;9.228;2024-03-02T15:01:39;14.50;32.70
2897;DHT22;1458;49.728;9.228;2024-03-02T15:04:08;14.60;31.70
2897;DHT22;1458;49.728;9.228;2024-03-02T15:06:35;14.70;31.10
2897;DHT22;1458;49.728;9.228;2024-03-02T15:09:03;14.70;29.40
2897;DHT22;1458;49.728;9.228;2024-03-02T15:11:31;14.60;30.10
2897;DHT22;1458;49.728;9.228;2024-03-02T15:13:58;14.60;29.10
2897;DHT22;1458;49.728;9.228;2024-03-02T15:16:26;14.70;28.60
2897;DHT22;1458;49.728;9.228;2024-03-02T15:18:54;14.50;28.20
2897;DHT22;1458;49.728;9.228;2024-03-02T15:21:22;14.30;28.60
2897;DHT22;1458;49.728;9.228;2024-03-02T15:23:50;14.30;28.50
2897;DHT22;1458;49.728;9.228;2024-03-02T15:26:17;14.40;28.50
2897;DHT22;1458;49.728;9.228;2024-03-02T15:28:45;14.30;28.80
2897;DHT22;1458;49.728;9.228;2024-03-02T15:31:12;14.20;28.70
2897;DHT22;1458;49.728;9.228;2024-03-02T15:33:39;14.30;28.90
2897;DHT22;1458;49.728;9.228;2024-03-02T15:36:08;14.40;27.30
2897;DHT22;1458;49.728;9.228;2024-03-02T15:38:37;14.50;27.80
2897;DHT22;1458;49.728;9.228;2024-03-02T15:41:04;14.30;27.40
2897;DHT22;1458;49.728;9.228;2024-03-02T15:43:32;14.30;27.50
2897;DHT22;1458;49.728;9.228;2024-03-02T15:46:01;14.40;27.90
2897;DHT22;1458;49.728;9.228;2024-03-02T15:48:29;14.60;28.90
2897;DHT22;1458;49.728;9.228;2024-03-02T15:50:58;14.40;28.00
2897;DHT22;1458;49.728;9.228;2024-03-02T15:53:25;14.40;28.80
2897;DHT22;1458;49.728;9.228;2024-03-02T15:55:54;14.30;29.00
2897;DHT22;1458;49.728;9.228;2024-03-02T15:58:22;14.40;29.30
2897;DHT22;1458;49.728;9.228;2024-03-02T16:00:49;14.50;29.50
2897;DHT22;1458;49.728;9.228;2024-03-02T16:03:16;14.50;30.00
2897;DHT22;1458;49.728;9.228;2024-03-02T16:05:44;14.50;31.10
2897;DHT22;1458;49.728;9.228;2024-03-02T16:08:12;14.40;31.30
2897;DHT22;1458;49.728;9.228;2024-03-02T16:10:39;14.40;32.50
2897;DHT22;1458;49.728;9.228;2024-03-02T16:13:08;14.40;32.80
2897;DHT22;1458;49.728;9.228;2024-03-02T16:15:36;14.30;33.30
2897;DHT22;1458;49.728;9.228;2024-03-02T16:18:04;14.30;33.60
2897;DHT22;1458;49.728;9.228;2024-03-02T16:20:31;14.00;34.90
2897;DHT22;1458;49.728;9.228;2024-03-02T16:22:59;14.00;36.20